Time;durP1;ratioP1;P1;durP2;ratioP2;P2;SDS_P1;SDS_P2;PMS_P1;PMS_P2;Temp;Humidity;BMP_temperature;BMP_pressure;BME280_temperature;BME280_humidity;BME280_pressure;Samples;Min_cycle;Max_cycle;Signal;HPM_P1;HPM_P2
2021/03/15 00:00:30;;;;;;;;;38.00;32.00;;;;;10.78;42.40;98021.84;6258653;27;127102;-57
2021/03/15 00:03:33;;;;;;;;;33.60;29.00;;;;;10.70;42.57;98028.41;6257065;27;128404;-57
2021/03/15 00:06:34;;;;;;;;;32.60;28.60;;;;;10.74;42.48;98031.47;6242143;27;125404;-57
2021/03/15 00:09:36;;;;;;;;;30.75;28.75;;;;;10.54;42.92;98002.28;6231171;28;125604;-57
2021/03/15 00:12:40;;;;;;;;;37.80;32.00;;;;;10.70;42.80;98035.72;6232629;28;126986;-57
2021/03/15 00:15:42;;;;;;;;;34.50;30.00;;;;;10.42;42.83;97990.72;6241269;27;126431;-57
2021/03/15 00:18:44;;;;;;;;;39.00;31.00;;;;;10.64;42.98;98042.06;6255972;27;126336;-57
2021/03/15 00:21:45;;;;;;;;;40.60;33.00;;;;;10.64;42.94;98032.13;6258416;27;126358;-57
2021/03/15 00:24:47;;;;;;;;;39.40;32.60;;;;;10.65;42.95;98032.94;6254610;27;125577;-57
2021/03/15 00:27:48;;;;;;;;;37.75;32.75;;;;;10.68;43.01;98032.44;6232978;28;125475;-57
2021/03/15 00:30:49;;;;;;;;;43.00;33.00;;;;;10.70;43.00;98033.81;6232789;28;126630;-57
2021/03/15 00:33:51;;;;;;;;;39.80;33.00;;;;;10.74;43.12;98040.38;6233053;28;128217;-57
2021/03/15 00:36:54;;;;;;;;;41.80;35.00;;;;;10.82;42.96;98033.75;6250611;27;126365;-57
2021/03/15 00:39:55;;;;;;;;;42.00;35.00;;;;;10.85;42.87;98034.06;6258092;27;125352;-57
2021/03/15 00:42:57;;;;;;;;;42.00;33.00;;;;;10.88;42.89;98022.00;6257037;27;125842;-57
2021/03/15 00:45:58;;;;;;;;;44.50;35.00;;;;;10.96;42.79;98029.69;6253927;27;126685;-57
2021/03/15 00:49:00;;;;;;;;;38.60;33.00;;;;;10.98;42.73;98034.84;6239533;27;126027;-57
2021/03/15 00:52:02;;;;;;;;;42.40;33.40;;;;;11.03;42.43;98030.34;6240877;27;126539;-57
2021/03/15 00:55:04;;;;;;;;;41.00;33.80;;;;;11.06;42.59;98029.84;6259865;27;126399;-57
2021/03/15 00:58:07;;;;;;;;;37.20;33.00;;;;;11.11;42.49;98021.00;6237115;28;126660;-57
2021/03/15 01:01:10;;;;;;;;;35.00;32.00;;;;;11.18;42.40;98016.28;6219185;28;126470;-57
2021/03/15 01:04:20;;;;;;;;;41.40;33.00;;;;;11.23;42.24;98013.66;6217645;28;127007;-57
2021/03/15 01:07:44;;;;;;;;;42.60;33.00;;;;;11.27;42.18;98009.41;6219110;28;126569;-57
2021/03/15 01:10:47;;;;;;;;;40.50;33.25;;;;;11.34;42.08;98017.34;6218992;28;126256;-57
2021/03/15 01:13:51;;;;;;;;;39.00;34.40;;;;;11.35;42.19;98006.28;6218942;28;124600;-57
2021/03/15 01:16:57;;;;;;;;;43.00;34.20;;;;;11.39;42.04;98001.19;6219474;28;125763;-57
2021/03/15 01:20:01;;;;;;;;;42.60;34.60;;;;;11.45;42.03;98000.19;6218740;28;124697;-57
2021/03/15 01:23:03;;;;;;;;;41.67;35.00;;;;;11.45;41.94;97994.81;6235678;28;126264;-57
2021/03/15 01:26:05;;;;;;;;;40.00;35.00;;;;;11.34;41.93;97957.97;6236139;27;125061;-57
2021/03/15 01:29:06;;;;;;;;;41.50;35.00;;;;;11.47;41.86;97974.59;6236383;28;126264;-57
2021/03/15 01:32:08;;;;;;;;;37.60;32.00;;;;;11.21;41.83;97935.66;6237008;28;126301;-57
2021/03/15 01:35:10;;;;;;;;;43.00;34.80;;;;;11.43;41.74;97969.97;6237600;27;125364;-57
2021/03/15 01:38:12;;;;;;;;;38.80;32.60;;;;;11.39;41.88;97968.81;6261853;27;125906;-57
2021/03/15 01:41:13;;;;;;;;;41.00;33.00;;;;;11.35;41.92;97965.78;6262093;27;127649;-57
2021/03/15 01:44:15;;;;;;;;;40.00;34.00;;;;;11.28;41.92;97960.59;6258687;27;126606;-57
2021/03/15 01:47:18;;;;;;;;;45.00;35.20;;;;;11.23;42.10;97970.50;6241682;27;126476;-57
2021/03/15 01:50:20;;;;;;;;;44.80;34.80;;;;;11.17;42.17;97961.50;6236293;28;126768;-57
2021/03/15 01:53:22;;;;;;;;;43.33;35.00;;;;;11.14;42.19;97963.88;6236224;28;126290;-57
2021/03/15 01:56:24;;;;;;;;;42.00;36.00;;;;;11.08;42.20;97965.69;6244723;27;126109;-57
2021/03/15 01:59:25;;;;;;;;;44.00;35.60;;;;;11.04;42.49;97958.34;6261558;27;126468;-57
2021/03/15 02:02:28;;;;;;;;;46.40;37.60;;;;;10.89;42.56;97944.63;6260293;27;125296;-57
2021/03/15 02:05:31;;;;;;;;;46.60;38.00;;;;;10.93;42.49;97957.38;6256796;27;127385;-57
2021/03/15 02:08:32;;;;;;;;;46.00;37.40;;;;;10.61;42.71;97915.88;6235919;28;125250;-57
2021/03/15 02:11:53;;;;;;;;;47.00;38.00;;;;;10.79;42.94;97962.28;6235641;28;125378;-57
2021/03/15 02:15:05;;;;;;;;;46.75;36.00;;;;;10.71;42.83;97962.66;6247776;27;126085;-57
2021/03/15 02:18:25;;;;;;;;;43.80;36.00;;;;;10.69;43.12;97950.50;6260623;27;125901;-57
2021/03/15 02:22:04;;;;;;;;;42.40;35.00;;;;;10.62;43.03;97961.44;6241939;27;125928;-57
2021/03/15 02:25:30;;;;;;;;;45.40;36.00;;;;;10.55;43.22;97957.28;6246261;27;124831;-57
2021/03/15 02:28:52;;;;;;;;;47.00;38.00;;;;;10.44;43.14;97967.06;6235873;28;123573;-57
2021/03/15 02:32:35;;;;;;;;;46.40;38.00;;;;;10.31;43.29;97968.19;6236137;28;127363;-57
2021/03/15 02:35:38;;;;;;;;;46.80;38.40;;;;;10.21;43.13;97961.81;6234926;27;124954;-57
2021/03/15 02:38:44;;;;;;;;;45.60;36.40;;;;;10.07;43.78;97965.84;6234226;28;124514;-57
2021/03/15 02:41:49;;;;;;;;;46.60;37.60;;;;;9.98;43.65;97974.28;6234524;28;126041;-57
2021/03/15 02:44:54;;;;;;;;;45.00;36.60;;;;;9.91;43.70;97980.88;6243357;27;124369;-57
2021/03/15 02:47:58;;;;;;;;;47.00;36.00;;;;;9.84;43.59;97986.38;6259819;27;124861;-57
2021/03/15 02:51:01;;;;;;;;;42.60;36.00;;;;;9.78;44.26;97995.41;6260628;27;125268;-57
2021/03/15 02:54:05;;;;;;;;;41.20;34.60;;;;;9.33;44.31;97927.22;6252745;27;126250;-57
2021/03/15 02:57:07;;;;;;;;;44.60;35.20;;;;;9.70;44.55;98000.34;6234521;27;124984;-57
2021/03/15 03:00:11;;;;;;;;;43.00;35.00;;;;;9.69;44.34;97996.00;6233730;28;127051;-57
2021/03/15 03:03:16;;;;;;;;;43.75;36.00;;;;;9.67;44.32;98003.53;6233714;28;126585;-57
2021/03/15 03:06:21;;;;;;;;;44.60;36.00;;;;;9.67;44.42;98004.34;6234944;27;125923;-57
2021/03/15 03:09:25;;;;;;;;;47.00;38.00;;;;;9.70;44.58;97997.66;6234442;28;126511;-57
2021/03/15 03:12:27;;;;;;;;;49.00;39.00;;;;;9.43;44.57;97954.31;6234218;28;124973;-57
2021/03/15 03:15:31;;;;;;;;;48.00;38.00;;;;;9.77;44.71;97998.34;6248996;27;127313;-57
2021/03/15 03:18:36;;;;;;;;;52.50;41.00;;;;;9.80;45.04;98005.94;6259064;27;126443;-57
2021/03/15 03:21:41;;;;;;;;;50.00;40.20;;;;;9.89;44.98;98007.19;6254524;27;124965;-57
2021/03/15 03:24:46;;;;;;;;;50.50;40.00;;;;;9.97;45.03;98009.50;6234240;28;125669;-57
2021/03/15 03:27:55;;;;;;;;;47.00;38.50;;;;;10.05;44.96;98000.25;6233957;28;123988;-57
2021/03/15 03:30:59;;;;;;;;;49.00;40.00;;;;;10.13;44.95;98005.25;6216850;28;126952;-57
2021/03/15 03:34:02;;;;;;;;;49.00;40.00;;;;;10.19;44.75;98001.63;6256295;27;125223;-57
2021/03/15 03:37:03;;;;;;;;;50.00;39.00;;;;;10.24;44.75;98004.41;6258426;27;123879;-57
2021/03/15 03:40:05;;;;;;;;;49.00;39.33;;;;;10.27;44.74;98006.63;6258604;27;125249;-57
2021/03/15 03:43:07;;;;;;;;;53.00;41.33;;;;;10.34;44.80;98010.00;6244587;27;126921;-57
2021/03/15 03:46:09;;;;;;;;;50.00;40.40;;;;;10.36;44.78;98006.00;6234058;28;124136;-57
2021/03/15 03:49:11;;;;;;;;;50.60;41.00;;;;;10.35;44.75;98012.47;6233998;28;126183;-57
2021/03/15 03:52:14;;;;;;;;;49.00;38.60;;;;;10.56;44.64;98007.41;6237501;27;125601;-57
2021/03/15 03:55:20;;;;;;;;;54.80;41.00;;;;;10.63;44.59;98005.41;6251431;27;125312;-57
2021/03/15 03:58:22;;;;;;;;;50.00;41.00;;;;;10.71;44.49;98007.69;6249845;27;126003;-57
2021/03/15 04:01:30;;;;;;;;;50.50;40.00;;;;;10.79;44.34;97997.34;6259119;27;127691;-57
2021/03/15 04:04:39;;;;;;;;;52.00;40.60;;;;;10.82;44.32;97996.00;6232937;28;125410;-57
2021/03/15 04:07:45;;;;;;;;;51.00;41.00;;;;;10.88;44.35;97999.63;6232880;28;126183;-57
2021/03/15 04:10:48;;;;;;;;;51.40;40.00;;;;;10.92;44.16;97998.06;6233224;28;126173;-57
2021/03/15 04:13:54;;;;;;;;;52.00;42.80;;;;;10.69;43.95;97953.22;6250606;27;128265;-57
2021/03/15 04:16:59;;;;;;;;;51.60;41.00;;;;;11.02;43.88;97998.22;6258862;27;126542;-57
2021/03/15 04:20:04;;;;;;;;;49.00;40.00;;;;;11.02;43.95;97998.22;6257874;27;125314;-57
2021/03/15 04:23:09;;;;;;;;;48.00;39.00;;;;;11.05;43.86;97995.00;6244580;27;123593;-57
2021/03/15 04:26:12;;;;;;;;;52.50;43.00;;;;;10.82;43.66;97966.34;6232575;28;124694;-57
2021/03/15 04:29:14;;;;;;;;;49.00;40.00;;;;;11.00;43.63;97992.25;6215703;28;127069;-57
2021/03/15 04:32:17;;;;;;;;;49.00;40.00;;;;;10.81;43.65;97967.41;6237554;27;126729;-57
2021/03/15 04:35:30;;;;;;;;;50.00;39.25;;;;;10.86;43.92;97987.19;6258134;27;127336;-57
2021/03/15 04:38:33;;;;;;;;;50.00;40.50;;;;;10.67;43.84;97956.13;6257839;27;126246;-57
2021/03/15 04:41:35;;;;;;;;;52.00;41.00;;;;;10.72;43.78;97953.53;6255592;27;126505;-57
2021/03/15 04:44:38;;;;;;;;;50.75;40.75;;;;;10.85;43.92;97985.53;6231834;27;125362;-57
2021/03/15 04:47:40;;;;;;;;;50.80;41.00;;;;;10.82;43.94;97991.44;6252609;27;127725;-57
2021/03/15 04:50:45;;;;;;;;;50.60;40.00;;;;;10.83;43.90;97993.06;6256205;27;126302;-57
2021/03/15 04:53:48;;;;;;;;;47.80;39.00;;;;;10.87;43.96;97993.41;6256421;27;124676;-57
2021/03/15 04:56:52;;;;;;;;;48.80;39.60;;;;;10.89;43.98;97990.47;6256954;27;127811;-57
2021/03/15 04:59:56;;;;;;;;;50.00;40.00;;;;;10.90;43.88;97994.81;6257711;27;126816;-57
2021/03/15 05:03:02;;;;;;;;;52.00;41.00;;;;;10.94;43.85;97994.06;6265578;27;126345;-57
2021/03/15 05:06:07;;;;;;;;;52.00;40.40;;;;;10.97;44.07;97993.56;6254814;27;126017;-57
2021/03/15 05:09:11;;;;;;;;;50.00;40.40;;;;;10.95;43.99;97992.16;6253183;27;126092;-57
2021/03/15 05:12:15;;;;;;;;;51.40;41.00;;;;;10.98;44.01;97997.09;6254612;27;125943;-57
2021/03/15 05:15:16;;;;;;;;;52.20;40.20;;;;;10.97;43.98;97988.16;6251422;27;127941;-57
2021/03/15 05:18:18;;;;;;;;;50.00;39.60;;;;;10.90;43.80;97963.25;6253607;27;126198;-57
2021/03/15 05:21:25;;;;;;;;;52.20;41.20;;;;;10.92;43.77;97963.00;6252086;27;126224;-57
2021/03/15 05:24:27;;;;;;;;;49.00;38.40;;;;;11.10;43.83;97982.44;6241381;27;126035;-57
2021/03/15 05:27:29;;;;;;;;;52.00;42.00;;;;;11.21;43.77;97992.31;6257075;27;126933;-57
2021/03/15 05:30:34;;;;;;;;;49.00;40.00;;;;;11.25;43.48;97985.34;6256280;27;127075;-57
2021/03/15 05:33:37;;;;;;;;;52.00;41.60;;;;;11.28;43.46;97990.28;6256259;27;124823;-57
2021/03/15 05:36:40;;;;;;;;;53.60;42.00;;;;;11.26;43.66;97980.78;6256024;27;125141;-57
2021/03/15 05:39:41;;;;;;;;;55.00;41.00;;;;;11.33;43.63;97996.81;6260281;27;124807;-57
2021/03/15 05:43:17;;;;;;;;;49.80;40.00;;;;;11.38;43.62;97992.31;6244082;27;125392;-57
2021/03/15 05:46:43;;;;;;;;;51.00;41.00;;;;;11.45;43.25;97994.81;6259481;27;124776;-57
2021/03/15 05:50:04;;;;;;;;;50.25;41.25;;;;;11.47;43.61;97998.09;6260879;27;126973;-57
2021/03/15 05:53:27;;;;;;;;;49.20;41.00;;;;;11.49;43.57;97999.44;6236715;27;126344;-57
2021/03/15 05:56:42;;;;;;;;;52.80;42.00;;;;;11.54;43.37;97998.69;6235887;28;128339;-57
2021/03/15 06:00:05;;;;;;;;;52.25;43.00;;;;;11.54;43.38;97999.53;6234056;27;124620;-57
2021/03/15 06:03:07;;;;;;;;;52.60;41.00;;;;;11.53;43.42;97997.88;6257507;27;127807;-57
2021/03/15 06:06:16;;;;;;;;;55.00;43.33;;;;;11.50;43.32;97997.56;6257878;27;125399;-57
2021/03/15 06:09:25;;;;;;;;;57.40;44.00;;;;;11.53;43.34;97994.38;6258375;27;124200;-57
2021/03/15 06:12:35;;;;;;;;;52.00;43.00;;;;;11.40;43.32;97968.56;6256743;27;124718;-57
2021/03/15 06:15:43;;;;;;;;;54.80;43.00;;;;;11.51;43.48;98007.31;6256657;27;126056;-57
2021/03/15 06:18:44;;;;;;;;;53.00;43.00;;;;;11.48;43.63;98000.53;6257229;27;124797;-57
2021/03/15 06:21:46;;;;;;;;;55.40;44.00;;;;;11.47;43.58;97993.50;6255911;27;125762;-57
2021/03/15 06:24:49;;;;;;;;;49.60;41.00;;;;;11.51;43.59;97996.50;6258809;27;126572;-57
2021/03/15 06:27:51;;;;;;;;;53.60;44.00;;;;;11.63;43.45;97989.91;6258872;27;126404;-58
2021/03/15 06:30:53;;;;;;;;;54.00;43.40;;;;;11.71;43.41;97991.38;6257888;27;128221;-58
2021/03/15 06:33:58;;;;;;;;;55.60;42.60;;;;;11.85;43.11;97981.88;6258687;27;127392;-58
2021/03/15 06:37:00;;;;;;;;;51.40;40.60;;;;;11.97;43.00;97993.34;6254723;27;124940;-58
2021/03/15 06:40:02;;;;;;;;;55.00;42.00;;;;;12.05;42.70;97994.81;6256570;27;128702;-58
2021/03/15 06:43:05;;;;;;;;;52.80;42.80;;;;;12.13;42.60;97995.16;6255880;27;125132;-58
2021/03/15 06:46:14;;;;;;;;;55.25;44.25;;;;;12.23;42.38;97997.16;6239276;27;125838;-57
2021/03/15 06:49:18;;;;;;;;;53.00;42.00;;;;;12.33;42.29;97994.56;6255546;27;124237;-58
2021/03/15 06:52:19;;;;;;;;;52.00;41.40;;;;;12.49;41.99;97993.66;6257095;27;126145;-58
2021/03/15 06:55:22;;;;;;;;;51.80;41.80;;;;;12.56;41.61;97982.63;6253893;27;127143;-58
2021/03/15 06:58:32;;;;;;;;;54.40;41.80;;;;;12.83;41.49;97996.13;6257475;27;127202;-58
2021/03/15 07:01:43;;;;;;;;;53.20;43.00;;;;;12.93;41.10;97991.63;6256222;27;124266;-58
2021/03/15 07:04:44;;;;;;;;;55.50;43.00;;;;;12.95;41.05;98002.97;6255906;27;126017;-57
2021/03/15 07:07:56;;;;;;;;;55.00;42.40;;;;;13.03;41.24;98005.22;6255774;27;126449;-58
2021/03/15 07:10:57;;;;;;;;;53.00;43.00;;;;;13.07;41.04;98002.81;6255737;27;124739;-58
2021/03/15 07:13:59;;;;;;;;;48.60;41.00;;;;;13.09;40.80;98007.97;6256779;27;127062;-58
2021/03/15 07:17:01;;;;;;;;;54.40;42.00;;;;;12.83;40.75;97975.31;6256640;27;126493;-58
2021/03/15 07:20:04;;;;;;;;;51.20;41.20;;;;;13.10;40.74;98013.09;6256036;27;126379;-58
2021/03/15 07:23:05;;;;;;;;;49.00;40.00;;;;;13.03;40.62;97977.34;6255405;27;126622;-58
2021/03/15 07:26:17;;;;;;;;;50.00;41.60;;;;;13.34;40.20;98014.41;6256953;27;127912;-58
2021/03/15 07:29:19;;;;;;;;;48.25;39.00;;;;;13.45;40.19;98010.69;6255769;27;126159;-58
2021/03/15 07:32:38;;;;;;;;;47.00;39.00;;;;;13.55;39.70;98017.25;6254726;27;125903;-58
2021/03/15 07:35:41;;;;;;;;;44.00;36.00;;;;;13.69;39.20;98019.22;6255469;27;126019;-58
2021/03/15 07:38:42;;;;;;;;;45.00;36.00;;;;;13.90;38.63;98022.84;6255539;27;126344;-58
2021/03/15 07:41:49;;;;;;;;;46.25;36.25;;;;;14.01;38.43;98002.84;6255905;27;126613;-58
2021/03/15 07:44:50;;;;;;;;;45.00;37.40;;;;;14.32;38.08;98023.53;6238755;27;124490;-58
2021/03/15 07:47:52;;;;;;;;;39.60;33.00;;;;;14.53;37.82;98018.22;6255693;27;126976;-58
2021/03/15 07:50:55;;;;;;;;;41.25;34.00;;;;;14.70;37.49;98014.19;6254493;27;127636;-58
2021/03/15 07:54:07;;;;;;;;;40.75;33.75;;;;;14.91;37.52;98017.72;6255382;27;123996;-58
2021/03/15 07:57:25;;;;;;;;;41.00;33.00;;;;;15.04;36.82;98019.09;6254993;27;125030;-58
2021/03/15 08:00:28;;;;;;;;;39.00;33.20;;;;;15.06;36.41;98015.00;6248903;27;124981;-58
2021/03/15 08:03:29;;;;;;;;;34.00;31.00;;;;;15.09;36.43;98019.09;6244860;27;124907;-58
2021/03/15 08:06:31;;;;;;;;;33.75;30.75;;;;;15.06;36.33;97997.91;6229744;28;126284;-58
2021/03/15 08:09:33;;;;;;;;;33.00;28.00;;;;;15.05;36.20;98015.31;6228510;27;125366;-58
2021/03/15 08:12:43;;;;;;;;;31.80;29.00;;;;;15.06;36.35;98023.16;6213409;28;126689;-58
2021/03/15 08:15:47;;;;;;;;;30.60;28.20;;;;;15.09;36.07;98021.81;6231371;28;126256;-58
2021/03/15 08:18:51;;;;;;;;;34.00;30.00;;;;;14.91;35.99;98006.03;6229766;27;125958;-58
2021/03/15 08:21:53;;;;;;;;;32.00;29.00;;;;;14.98;36.29;98023.72;6228135;28;125004;-58
2021/03/15 08:24:58;;;;;;;;;32.40;30.00;;;;;15.03;36.19;98020.19;6229545;27;126282;-58
2021/03/15 08:28:03;;;;;;;;;36.75;32.50;;;;;15.00;36.12;98021.53;6229750;28;124580;-58
2021/03/15 08:31:33;;;;;;;;;38.00;32.00;;;;;15.01;36.36;98023.16;6221112;28;124798;-58
2021/03/15 08:34:38;;;;;;;;;34.20;31.80;;;;;15.04;36.33;98030.78;6224704;28;123787;-58
2021/03/15 08:38:02;;;;;;;;;33.50;30.50;;;;;15.09;36.56;98027.25;6226413;28;126256;-58
2021/03/15 08:41:08;;;;;;;;;31.20;30.00;;;;;15.11;35.99;98020.44;6211638;27;126443;-58
2021/03/15 08:44:39;;;;;;;;;33.00;29.60;;;;;15.20;35.59;98030.78;6229978;28;125054;-58
2021/03/15 08:47:50;;;;;;;;;31.25;27.25;;;;;15.03;35.46;98004.72;6230454;28;126898;-58
2021/03/15 08:50:57;;;;;;;;;31.00;28.00;;;;;15.30;34.98;98017.16;6230199;27;126312;-58
2021/03/15 08:54:08;;;;;;;;;27.40;27.00;;;;;15.40;34.80;98012.53;6230241;27;127039;-58
2021/03/15 08:57:33;;;;;;;;;32.25;28.75;;;;;15.52;34.44;98015.00;6230292;27;124929;-58
2021/03/15 09:00:35;;;;;;;;;30.00;27.50;;;;;15.70;34.94;98008.97;6228891;27;123924;-58
2021/03/15 09:03:54;;;;;;;;;34.40;30.00;;;;;15.96;34.76;98002.38;6227745;27;123814;-58
2021/03/15 09:06:56;;;;;;;;;36.25;30.00;;;;;16.06;34.39;98004.25;6230664;27;127021;-58
2021/03/15 09:10:24;;;;;;;;;31.60;29.00;;;;;16.20;33.40;98007.19;6228718;28;125173;-58
2021/03/15 09:13:33;;;;;;;;;28.80;25.20;;;;;16.25;33.16;98007.97;6229345;27;124206;-58
2021/03/15 09:16:35;;;;;;;;;25.60;22.60;;;;;16.76;33.05;98003.06;6229078;28;125432;-58
2021/03/15 09:19:39;;;;;;;;;26.40;25.00;;;;;17.19;32.14;97995.94;6233345;27;127739;-58
2021/03/15 09:22:40;;;;;;;;;27.40;26.00;;;;;18.34;30.37;97997.66;6233954;27;126032;-58
2021/03/15 09:25:42;;;;;;;;;29.00;27.00;;;;;18.88;29.97;97991.72;6234004;27;125325;-58
2021/03/15 09:28:43;;;;;;;;;32.40;29.60;;;;;19.30;29.13;97993.47;6232586;27;125192;-58
2021/03/15 09:32:12;;;;;;;;;30.00;26.75;;;;;19.76;27.81;97990.75;6234184;27;125280;-58
2021/03/15 09:35:43;;;;;;;;;26.60;25.00;;;;;19.28;27.72;97921.94;6232740;28;126028;-58
2021/03/15 09:38:45;;;;;;;;;26.60;25.00;;;;;20.46;26.88;97987.72;6231317;27;124850;-58
2021/03/15 09:41:47;;;;;;;;;27.00;26.00;;;;;20.90;26.08;97980.69;6233368;28;125966;-58
2021/03/15 09:44:49;;;;;;;;;28.40;25.40;;;;;21.64;25.12;97967.31;6233377;27;125087;-58
2021/03/15 09:47:50;;;;;;;;;33.50;27.00;;;;;23.07;24.03;97966.31;6214014;28;125399;-58
2021/03/15 09:50:59;;;;;;;;;25.60;22.80;;;;;23.93;22.07;97924.81;6214967;28;126481;-58
2021/03/15 09:54:39;;;;;;;;;27.80;25.40;;;;;25.45;20.60;97957.38;6215144;27;126405;-58
2021/03/15 09:57:44;;;;;;;;;23.00;22.00;;;;;26.00;19.92;97956.09;6215954;28;124864;-58
2021/03/15 10:00:54;;;;;;;;;28.00;24.60;;;;;26.06;19.21;97918.78;6211239;28;126032;-58
2021/03/15 10:04:36;;;;;;;;;27.40;23.00;;;;;27.26;18.90;97958.41;6235985;27;127060;-58
2021/03/15 10:07:56;;;;;;;;;22.75;21.75;;;;;27.08;18.95;97959.84;6258747;27;126065;-58
2021/03/15 10:11:22;;;;;;;;;25.50;25.00;;;;;26.50;19.40;97950.19;6257575;27;125216;-58
2021/03/15 10:14:59;;;;;;;;;22.75;21.50;;;;;26.04;19.79;97952.31;6209634;27;125839;-58
2021/03/15 10:18:18;;;;;;;;;23.40;20.00;;;;;25.83;20.00;97946.88;6239627;27;124488;-59
2021/03/15 10:21:31;;;;;;;;;26.40;23.60;;;;;25.15;20.12;97944.88;6238426;27;124559;-58
2021/03/15 10:24:40;;;;;;;;;24.80;21.80;;;;;25.31;20.07;97943.91;6256101;27;127245;-58
2021/03/15 10:27:57;;;;;;;;;26.60;23.60;;;;;24.45;20.43;97938.28;6238564;27;125995;-58
2021/03/15 10:31:08;;;;;;;;;26.00;23.00;;;;;23.47;21.34;97930.34;6238998;27;125742;-58
2021/03/15 10:34:15;;;;;;;;;25.20;22.00;;;;;22.69;22.17;97940.59;6255682;27;125144;-58
2021/03/15 10:37:39;;;;;;;;;27.00;23.25;;;;;22.03;22.58;97915.19;6239025;27;127001;-58
2021/03/15 10:41:02;;;;;;;;;24.00;22.00;;;;;21.53;23.58;97931.94;6242280;27;124524;-58
2021/03/15 10:44:05;;;;;;;;;24.40;22.00;;;;;20.91;24.59;97933.81;6237606;27;124781;-58
2021/03/15 10:47:15;;;;;;;;;23.60;23.00;;;;;20.41;25.33;97922.13;6238476;27;125428;-58
2021/03/15 10:50:36;;;;;;;;;23.60;22.60;;;;;19.89;26.16;97928.97;6239294;27;126145;-58
2021/03/15 10:53:51;;;;;;;;;22.60;21.00;;;;;19.44;26.43;97933.44;6238343;27;125752;-58
2021/03/15 10:57:21;;;;;;;;;24.00;21.00;;;;;19.00;26.92;97923.00;6247142;27;126518;-58
2021/03/15 11:00:50;;;;;;;;;27.80;25.20;;;;;18.74;27.66;97922.59;6238801;27;126663;-58
2021/03/15 11:04:07;;;;;;;;;25.00;23.00;;;;;18.19;27.99;97878.66;6223785;28;126206;-58
2021/03/15 11:07:20;;;;;;;;;24.75;21.75;;;;;18.12;28.36;97916.41;6212704;27;125458;-58
2021/03/15 11:10:31;;;;;;;;;23.00;21.60;;;;;17.91;28.64;97912.31;6212816;27;124952;-58
2021/03/15 11:13:54;;;;;;;;;23.20;21.00;;;;;17.78;29.04;97904.03;6213582;28;126857;-58
2021/03/15 11:17:00;;;;;;;;;23.40;21.40;;;;;17.73;28.79;97908.47;6212332;28;127229;-58
2021/03/15 11:20:10;;;;;;;;;25.40;22.40;;;;;17.68;28.86;97903.06;6213110;28;126000;-58
2021/03/15 11:23:29;;;;;;;;;24.00;22.00;;;;;17.73;29.30;97897.56;6204813;28;126049;-58
2021/03/15 11:26:45;;;;;;;;;22.00;20.00;;;;;17.82;28.03;97889.53;6208664;27;125931;-58
2021/03/15 11:29:52;;;;;;;;;21.00;19.60;;;;;17.98;27.28;97895.59;6212886;28;124890;-58
2021/03/15 11:33:12;;;;;;;;;22.00;20.00;;;;;18.16;27.37;97886.63;6211736;27;123993;-58
2021/03/15 11:36:45;;;;;;;;;21.50;20.00;;;;;18.20;27.44;97879.47;6218852;27;126104;-58
2021/03/15 11:39:50;;;;;;;;;19.00;18.00;;;;;18.22;27.34;97841.78;6211585;28;125832;-58
2021/03/15 11:42:54;;;;;;;;;20.25;17.75;;;;;18.62;26.79;97864.91;6213079;27;124985;-58
2021/03/15 11:45:56;;;;;;;;;21.25;19.50;;;;;18.63;26.74;97865.72;6211937;28;124490;-58
2021/03/15 11:48:59;;;;;;;;;24.67;23.00;;;;;18.42;27.86;97868.75;6213165;27;125071;-58
2021/03/15 11:52:27;;;;;;;;;27.00;25.00;;;;;18.17;27.78;97869.97;6212858;27;124731;-57
2021/03/15 11:55:53;;;;;;;;;19.20;17.20;;;;;17.83;27.34;97871.28;6212168;28;124085;-57
2021/03/15 11:58:54;;;;;;;;;22.00;19.50;;;;;17.62;27.76;97870.72;6222180;28;126107;-57
2021/03/15 12:01:57;;;;;;;;;22.00;20.00;;;;;17.40;28.56;97870.41;6196876;28;125922;-57
2021/03/15 12:04:59;;;;;;;;;19.25;17.50;;;;;17.21;28.24;97868.41;6235506;27;127309;-57
2021/03/15 12:08:00;;;;;;;;;18.00;17.00;;;;;16.89;28.51;97832.84;6222551;28;125606;-57
2021/03/15 12:11:05;;;;;;;;;19.75;17.50;;;;;16.89;28.54;97860.88;6234372;27;126217;-57
2021/03/15 12:14:06;;;;;;;;;16.60;14.60;;;;;16.69;28.63;97862.97;6246725;27;128127;-57
2021/03/15 12:17:09;;;;;;;;;15.50;13.50;;;;;16.52;28.33;97859.84;6217775;27;127630;-57
2021/03/15 12:20:12;;;;;;;;;12.25;12.00;;;;;16.24;28.58;97839.63;6212402;28;126097;-57
2021/03/15 12:23:31;;;;;;;;;15.00;13.75;;;;;15.98;28.74;97820.78;6218421;27;127599;-57
2021/03/15 12:26:35;;;;;;;;;14.00;13.00;;;;;16.08;29.21;97857.94;6237834;27;128147;-57
2021/03/15 12:29:43;;;;;;;;;16.00;15.00;;;;;16.00;29.51;97856.66;6229489;27;127119;-57
2021/03/15 12:32:47;;;;;;;;;18.00;16.00;;;;;15.94;29.62;97854.25;6210552;27;126935;-57
2021/03/15 12:35:48;;;;;;;;;16.75;16.00;;;;;15.95;29.71;97850.44;6207612;28;126956;-57
2021/03/15 12:38:52;;;;;;;;;18.40;16.00;;;;;15.72;30.13;97802.22;6203953;28;127207;-57
2021/03/15 12:41:57;;;;;;;;;15.00;15.00;;;;;15.95;29.64;97843.09;6217340;27;125090;-57
2021/03/15 12:45:07;;;;;;;;;20.00;18.50;;;;;15.93;29.94;97844.47;6216942;27;124921;-57
2021/03/15 12:48:15;;;;;;;;;14.50;14.50;;;;;15.72;29.84;97822.03;6220178;27;126211;-57
2021/03/15 12:51:18;;;;;;;;;15.60;14.40;;;;;15.91;29.67;97852.09;6241689;27;126492;-57
2021/03/15 12:54:20;;;;;;;;;14.00;13.00;;;;;15.92;29.61;97842.84;6215606;28;126787;-57
2021/03/15 12:57:31;;;;;;;;;16.50;15.50;;;;;15.97;29.46;97845.53;6217345;27;125896;-57
2021/03/15 13:00:37;;;;;;;;;16.80;15.40;;;;;15.94;29.79;97841.47;6216938;28;124827;-57
2021/03/15 13:03:54;;;;;;;;;14.75;13.00;;;;;15.96;29.68;97843.91;6229540;27;126034;-57
2021/03/15 13:06:59;;;;;;;;;15.75;13.75;;;;;15.99;29.60;97838.72;6236557;27;124955;-57
2021/03/15 13:10:11;;;;;;;;;16.60;15.00;;;;;16.08;29.66;97847.06;6241454;27;127081;-57
2021/03/15 13:13:21;;;;;;;;;17.50;15.00;;;;;15.99;29.64;97843.34;6240797;27;124648;-57
2021/03/15 13:16:40;;;;;;;;;17.00;15.33;;;;;15.96;29.85;97838.47;6259176;27;128099;-57
2021/03/15 13:19:43;;;;;;;;;15.00;14.00;;;;;15.80;29.63;97810.56;6245315;27;126961;-57
2021/03/15 13:22:46;;;;;;;;;17.00;16.00;;;;;15.96;29.67;97839.28;6243230;27;126348;-57
2021/03/15 13:25:54;;;;;;;;;15.60;13.60;;;;;16.01;29.78;97841.16;6259112;27;125437;-57
2021/03/15 13:29:03;;;;;;;;;15.00;13.60;;;;;16.14;29.79;97829.63;6239518;27;126290;-57
2021/03/15 13:32:05;;;;;;;;;14.40;14.40;;;;;16.25;29.27;97830.38;6256696;27;125330;-57
2021/03/15 13:35:07;;;;;;;;;15.00;13.80;;;;;16.22;28.83;97830.97;6240990;27;126186;-56
2021/03/15 13:38:11;;;;;;;;;13.20;13.00;;;;;15.97;28.93;97792.00;6241513;27;127680;-57
2021/03/15 13:41:30;;;;;;;;;14.60;13.60;;;;;16.29;29.10;97831.44;6240252;27;127235;-57
2021/03/15 13:44:36;;;;;;;;;13.20;12.20;;;;;16.28;29.01;97824.38;6239344;27;124667;-57
2021/03/15 13:47:37;;;;;;;;;16.00;14.00;;;;;16.40;28.80;97822.09;6258746;27;127241;-57
2021/03/15 13:50:41;;;;;;;;;14.00;12.60;;;;;16.75;28.37;97821.81;6241262;27;126857;-57
2021/03/15 13:53:45;;;;;;;;;14.50;14.00;;;;;17.08;27.78;97825.53;6253073;27;125250;-57
2021/03/15 13:56:46;;;;;;;;;15.00;14.00;;;;;17.35;27.55;97811.31;6236809;27;127713;-57
2021/03/15 14:00:06;;;;;;;;;15.00;15.00;;;;;17.61;27.01;97820.84;6239576;27;124798;-57
2021/03/15 14:03:18;;;;;;;;;11.00;11.00;;;;;18.13;26.71;97825.25;6257470;27;125247;-57
2021/03/15 14:06:21;;;;;;;;;14.00;12.00;;;;;18.52;26.29;97813.22;6239435;27;124582;-57
2021/03/15 14:09:22;;;;;;;;;13.00;13.00;;;;;18.94;25.92;97812.19;6223390;27;125244;-57
2021/03/15 14:12:26;;;;;;;;;12.50;12.00;;;;;19.14;24.92;97808.28;6240100;27;123739;-57